createdAt,value
2019-05-12T00:02:30.253Z,28.30
2019-05-12T00:05:02.335Z,27.98
2019-05-12T00:07:34.740Z,26.20
2019-05-12T00:10:08.594Z,25.70
2019-05-12T00:12:40.722Z,24.43
2019-05-12T00:15:14.304Z,26.60
2019-05-12T00:17:48.112Z,22.73
2019-05-12T00:20:19.838Z,25.95
2019-05-12T00:22:55.092Z,21.57
2019-05-12T00:25:28.328Z,24.90
2019-05-12T00:28:00.774Z,19.87
2019-05-12T00:30:48.866Z,26.15
2019-05-12T00:33:20.810Z,22.55
2019-05-12T00:35:52.664Z,21.68
2019-05-12T00:38:24.728Z,26.95
2019-05-12T00:40:58.352Z,24.07
2019-05-12T00:43:30.073Z,26.40
2019-05-12T00:46:01.981Z,22.37
2019-05-12T00:48:33.906Z,24.47
2019-05-12T00:51:07.768Z,24.03
2019-05-12T00:53:43.340Z,22.65
2019-05-12T00:56:13.445Z,24.40
2019-05-12T00:58:45.407Z,24.47
2019-05-12T01:01:18.407Z,23.75
2019-05-12T01:03:50.293Z,22.93
2019-05-12T01:06:22.094Z,23.87
2019-05-12T01:08:54.219Z,27.07
2019-05-12T01:11:28.333Z,23.47
2019-05-12T01:13:59.690Z,23.50
2019-05-12T01:16:31.456Z,22.45
2019-05-12T01:19:03.614Z,24.90
2019-05-12T01:21:37.596Z,24.30
2019-05-12T01:24:09.228Z,22.70
2019-05-12T01:26:41.121Z,24.70
2019-05-12T01:29:12.979Z,26.25
2019-05-12T01:31:52.180Z,22.77
2019-05-12T01:34:24.199Z,31.60
2019-05-12T01:36:58.568Z,27.32
2019-05-12T01:39:30.988Z,31.93
2019-05-12T01:42:02.876Z,29.90
2019-05-12T01:44:34.832Z,28.73
2019-05-12T01:47:08.368Z,31.68
2019-05-12T01:49:40.424Z,31.77
2019-05-12T01:52:13.366Z,31.97
2019-05-12T01:54:47.814Z,31.52
2019-05-12T01:57:19.325Z,30.10
2019-05-12T01:59:51.316Z,32.90
2019-05-12T02:02:23.143Z,33.20
2019-05-12T02:05:08.867Z,32.08
2019-05-12T02:07:48.027Z,30.90
2019-05-12T02:10:21.596Z,33.63
2019-05-12T02:12:53.381Z,32.77
2019-05-12T02:15:27.659Z,31.10
2019-05-12T02:17:59.229Z,33.75
2019-05-12T02:20:31.405Z,29.35
2019-05-12T02:23:03.213Z,30.52
2019-05-12T02:25:37.853Z,28.05
2019-05-12T02:28:09.593Z,38.73
2019-05-12T02:30:42.229Z,33.38
2019-05-12T02:33:15.923Z,31.00
2019-05-12T02:35:47.684Z,34.30
2019-05-12T02:38:19.458Z,32.90
2019-05-12T02:40:54.753Z,31.70
2019-05-12T02:43:25.487Z,31.50
2019-05-12T02:45:57.432Z,38.90
2019-05-12T02:48:29.285Z,33.57
2019-05-12T02:51:01.315Z,29.80
2019-05-12T02:53:35.131Z,35.17
2019-05-12T02:56:08.216Z,37.20
2019-05-12T02:58:45.179Z,30.77
2019-05-12T03:01:15.815Z,35.63
2019-05-12T03:03:49.982Z,38.47
2019-05-12T03:06:25.075Z,36.40
2019-05-12T03:09:04.822Z,35.23
2019-05-12T03:11:37.495Z,35.90
2019-05-12T03:14:09.334Z,36.33
2019-05-12T03:16:41.217Z,35.97
2019-05-12T03:19:15.025Z,38.10
2019-05-12T03:21:46.630Z,34.40
2019-05-12T03:24:19.351Z,37.55
2019-05-12T03:26:55.070Z,37.87
2019-05-12T03:29:25.365Z,40.53
2019-05-12T03:31:57.657Z,38.57
2019-05-12T03:34:30.038Z,34.00
2019-05-12T03:37:07.831Z,35.30
2019-05-12T03:39:35.847Z,33.90
2019-05-12T03:42:08.339Z,34.40
2019-05-12T03:44:40.135Z,41.53
2019-05-12T03:47:14.459Z,33.58
2019-05-12T03:49:45.597Z,34.90
2019-05-12T03:52:17.626Z,35.17
2019-05-12T03:54:49.619Z,37.30
2019-05-12T03:57:25.094Z,37.13
2019-05-12T03:59:56.499Z,36.47
2019-05-12T04:02:28.543Z,40.13
2019-05-12T04:05:00.316Z,38.73
2019-05-12T04:07:34.433Z,41.13
2019-05-12T04:10:05.997Z,33.48
2019-05-12T04:12:38.039Z,33.50
2019-05-12T04:15:10.179Z,35.47
2019-05-12T04:17:45.500Z,31.07
2019-05-12T04:20:18.554Z,37.35
2019-05-12T04:22:50.703Z,32.13
2019-05-12T04:25:24.947Z,34.05
2019-05-12T04:27:56.117Z,34.78
2019-05-12T04:30:27.887Z,35.13
2019-05-12T04:32:59.778Z,34.30
2019-05-12T04:35:34.693Z,37.93
2019-05-12T04:38:05.731Z,32.53
2019-05-12T04:40:37.658Z,36.57
2019-05-12T04:43:09.891Z,37.97
2019-05-12T04:45:44.789Z,35.05
2019-05-12T04:48:20.927Z,29.42
2019-05-12T04:50:49.204Z,35.75
2019-05-12T04:53:24.861Z,35.30
2019-05-12T04:56:07.520Z,32.65
2019-05-12T04:58:28.849Z,35.98
2019-05-12T05:01:00.624Z,33.80
2019-05-12T05:17:18.502Z,62.17
2019-05-12T05:19:50.649Z,62.95
2019-05-12T05:22:24.248Z,54.85
2019-05-12T05:24:56.451Z,52.43
2019-05-12T05:27:28.502Z,49.90
2019-05-12T05:30:00.266Z,55.38
2019-05-12T05:32:33.884Z,57.23
2019-05-12T05:35:07.757Z,57.00
2019-05-12T05:37:43.577Z,59.60
2019-05-12T05:40:14.281Z,37.08
2019-05-12T05:42:46.633Z,38.90
2019-05-12T05:45:23.415Z,41.42
2019-05-12T05:47:54.276Z,41.63
2019-05-12T05:50:29.472Z,38.88
2019-05-12T05:52:59.502Z,44.93
2019-05-12T05:55:33.917Z,38.38
2019-05-12T05:58:08.588Z,36.95
2019-05-12T06:00:39.509Z,64.30
2019-05-12T06:03:14.975Z,36.95
2019-05-12T06:05:45.499Z,53.60
2019-05-12T06:08:20.852Z,43.65
2019-05-12T06:10:53.801Z,40.40
2019-05-12T06:13:29.932Z,36.28
2019-05-12T06:15:58.692Z,35.48
2019-05-12T06:18:30.584Z,32.48
2019-05-12T06:21:03.454Z,46.55
2019-05-12T06:23:39.192Z,52.25
2019-05-12T06:26:09.880Z,52.73
2019-05-12T06:28:43.789Z,41.25
2019-05-12T06:31:18.953Z,64.67
2019-05-12T06:33:49.033Z,54.63
2019-05-12T06:36:24.876Z,43.10
2019-05-12T06:38:54.927Z,88.07
2019-05-12T06:41:26.728Z,44.58
2019-05-12T06:43:58.749Z,43.73
2019-05-12T06:46:30.624Z,31.62
2019-05-12T06:49:10.236Z,26.50
2019-05-12T06:51:36.249Z,28.92
2019-05-12T06:54:11.971Z,27.87
2019-05-12T06:56:43.512Z,31.60
2019-05-12T06:59:15.736Z,29.63
2019-05-12T07:01:49.882Z,28.80
2019-05-12T07:04:23.958Z,29.52
2019-05-12T07:07:00.230Z,30.02
2019-05-12T07:09:32.053Z,31.57
2019-05-12T07:12:06.661Z,25.25
2019-05-12T07:14:36.057Z,28.85
2019-05-12T07:17:26.840Z,31.82
2019-05-12T07:19:58.830Z,27.30
2019-05-12T07:22:31.301Z,26.52
2019-05-12T07:25:07.872Z,28.40
2019-05-12T07:27:39.687Z,27.80
2019-05-12T07:30:13.660Z,24.85
2019-05-12T07:32:46.154Z,27.13
2019-05-12T07:35:18.058Z,33.02
2019-05-12T07:37:53.941Z,40.95
2019-05-12T07:40:30.108Z,28.12
2019-05-12T07:43:04.050Z,24.18
2019-05-12T07:45:35.670Z,26.02
2019-05-12T07:48:10.169Z,26.82
2019-05-12T07:50:43.206Z,24.32
2019-05-12T07:53:14.662Z,24.23
2019-05-12T07:55:49.286Z,24.98
2019-05-12T07:58:20.284Z,23.45
2019-05-12T08:00:53.916Z,21.57
2019-05-12T08:03:25.942Z,20.80
2019-05-12T08:06:01.772Z,24.02
2019-05-12T08:08:31.394Z,19.30
2019-05-12T08:11:04.624Z,22.60
2019-05-12T08:13:40.798Z,29.20
2019-05-12T08:16:10.457Z,29.15
2019-05-12T08:18:44.439Z,73.20
2019-05-12T08:21:16.167Z,22.07
2019-05-12T08:23:48.003Z,28.12
2019-05-12T08:26:20.360Z,21.05
2019-05-12T08:28:53.490Z,24.70
2019-05-12T08:31:33.134Z,17.62
2019-05-12T08:33:59.593Z,20.75
2019-05-12T08:36:33.457Z,20.70
2019-05-12T08:39:11.954Z,21.45
2019-05-12T08:41:41.119Z,25.97
2019-05-12T08:44:13.554Z,15.88
2019-05-12T08:46:51.979Z,18.60
2019-05-12T08:49:19.373Z,19.32
2019-05-12T08:51:57.873Z,18.67
2019-05-12T08:54:24.947Z,18.50
2019-05-12T08:57:00.984Z,17.90
2019-05-12T08:59:30.700Z,21.60
2019-05-12T09:02:07.303Z,22.52
2019-05-12T09:04:36.398Z,20.57
2019-05-12T09:07:08.987Z,50.83
2019-05-12T09:09:40.786Z,47.30
2019-05-12T09:12:13.981Z,123.95
2019-05-12T09:14:46.529Z,134.03
2019-05-12T09:17:18.449Z,139.75
2019-05-12T09:19:54.983Z,24.67
2019-05-12T09:22:24.364Z,105.47
2019-05-12T09:24:58.387Z,114.90
2019-05-12T09:27:30.175Z,138.30
2019-05-12T09:30:05.428Z,134.90
2019-05-12T09:32:39.125Z,139.55
2019-05-12T09:35:09.378Z,131.20
2019-05-12T09:37:41.428Z,92.10
2019-05-12T09:40:14.891Z,90.87
2019-05-12T09:42:47.285Z,103.50
2019-05-12T09:45:19.137Z,84.60
2019-05-12T09:47:50.999Z,123.42
2019-05-12T09:50:23.355Z,138.52
2019-05-12T09:53:00.660Z,126.00
2019-05-12T09:55:29.106Z,17.32
2019-05-12T09:58:03.777Z,53.83
2019-05-12T10:00:37.489Z,115.00
2019-05-12T10:03:08.902Z,19.42
2019-05-12T10:05:41.512Z,73.15
2019-05-12T10:08:14.219Z,50.85
2019-05-12T10:10:47.169Z,15.90
2019-05-12T10:13:25.098Z,15.05
2019-05-12T10:15:53.640Z,14.30
2019-05-12T10:18:25.665Z,19.77
2019-05-12T10:20:57.568Z,19.73
2019-05-12T10:23:29.607Z,29.12
2019-05-12T10:26:07.484Z,18.73
2019-05-12T10:28:35.802Z,13.95
2019-05-12T10:31:07.557Z,19.05
2019-05-12T10:33:39.517Z,14.43
2019-05-12T10:36:11.303Z,17.65
2019-05-12T10:38:43.472Z,23.77
2019-05-12T10:41:15.626Z,17.40
2019-05-12T10:43:48.397Z,17.80
2019-05-12T10:46:26.389Z,14.35
2019-05-12T10:48:54.942Z,10.70
2019-05-12T10:51:27.058Z,14.98
2019-05-12T10:54:07.746Z,10.25
2019-05-12T10:56:34.795Z,10.72
2019-05-12T10:59:07.002Z,37.83
2019-05-12T11:01:47.320Z,75.67
2019-05-12T11:04:14.323Z,46.65
2019-05-12T11:06:48.456Z,20.37
2019-05-12T11:09:21.326Z,10.18
2019-05-12T11:11:54.165Z,13.50
2019-05-12T11:14:30.471Z,10.00
2019-05-12T11:17:07.401Z,9.00
2019-05-12T11:19:40.748Z,10.93
2019-05-12T11:22:09.479Z,7.53
2019-05-12T11:24:41.346Z,13.55
2019-05-12T11:27:13.510Z,13.88
2019-05-12T11:29:49.301Z,11.83
2019-05-12T11:32:19.340Z,11.08
2019-05-12T11:34:53.613Z,10.15
2019-05-12T11:37:24.815Z,10.72
2019-05-12T11:39:56.993Z,9.75
2019-05-12T11:42:28.781Z,12.70
2019-05-12T11:45:00.801Z,9.10
2019-05-12T11:47:34.636Z,10.18
2019-05-12T11:50:09.760Z,11.08
2019-05-12T11:52:40.988Z,10.75
2019-05-12T11:55:13.463Z,10.68
2019-05-12T11:57:45.267Z,9.48
2019-05-12T12:00:20.226Z,10.60
2019-05-12T12:02:52.123Z,11.18
2019-05-12T12:05:24.102Z,12.18
2019-05-12T12:07:56.278Z,13.35
2019-05-12T12:10:29.379Z,13.35
2019-05-12T12:13:03.678Z,9.30
2019-05-12T12:15:35.954Z,17.80
2019-05-12T12:18:13.157Z,14.03
2019-05-12T12:20:44.086Z,15.80
2019-05-12T12:23:15.041Z,11.85
2019-05-12T12:25:48.474Z,11.28
2019-05-12T12:28:20.577Z,12.65
2019-05-12T12:30:56.788Z,12.18
2019-05-12T12:33:31.086Z,12.93
2019-05-12T12:36:00.866Z,10.63
2019-05-12T12:38:33.490Z,12.78
2019-05-12T12:41:05.393Z,9.00
2019-05-12T12:43:37.168Z,12.10
2019-05-12T12:46:21.213Z,11.68
2019-05-12T12:48:48.654Z,9.25
2019-05-12T12:51:20.633Z,15.83
2019-05-12T12:53:54.116Z,10.18
2019-05-12T12:56:30.076Z,10.72
2019-05-12T12:59:04.104Z,10.45
2019-05-12T13:01:35.777Z,8.18
2019-05-12T13:04:07.873Z,10.90
2019-05-12T13:06:39.716Z,12.05
2019-05-12T13:09:21.940Z,11.63
2019-05-12T13:11:45.063Z,11.03
2019-05-12T13:14:17.559Z,10.72
2019-05-12T13:16:54.605Z,16.07
2019-05-12T13:19:23.844Z,12.80
2019-05-12T13:21:55.883Z,16.32
2019-05-12T13:24:27.705Z,37.85
2019-05-12T13:26:59.695Z,11.35
2019-05-12T13:29:38.148Z,12.28
2019-05-12T13:32:05.777Z,10.00
2019-05-12T13:34:38.609Z,15.72
2019-05-12T13:37:15.564Z,12.82
2019-05-12T13:39:55.351Z,11.85
2019-05-12T13:42:18.276Z,11.68
2019-05-12T13:44:50.274Z,20.27
2019-05-12T13:47:22.310Z,15.88
2019-05-12T13:49:54.540Z,15.70
2019-05-12T13:52:30.275Z,15.48
2019-05-12T13:55:05.334Z,15.83
2019-05-12T13:57:34.171Z,17.37
2019-05-12T14:00:10.570Z,11.53
2019-05-12T14:02:43.977Z,15.32
2019-05-12T14:05:15.582Z,14.18
2019-05-12T14:07:49.976Z,11.35
2019-05-12T14:10:21.213Z,13.15
2019-05-12T14:12:54.361Z,9.73
2019-05-12T14:15:26.765Z,14.35
2019-05-12T14:17:59.465Z,13.80
2019-05-12T14:20:34.549Z,11.10
2019-05-12T14:23:06.795Z,12.88
2019-05-12T14:25:38.713Z,9.98
2019-05-12T14:28:13.647Z,9.98
2019-05-12T14:30:49.732Z,7.58
2019-05-12T14:33:18.816Z,10.55
2019-05-12T14:35:50.639Z,11.10
2019-05-12T14:38:27.507Z,6.78
2019-05-12T14:41:01.145Z,8.35
2019-05-12T14:43:30.068Z,8.58
2019-05-12T14:46:06.214Z,22.80
2019-05-12T14:48:40.169Z,24.07
2019-05-12T14:51:09.238Z,22.65
2019-05-12T14:53:41.285Z,10.85
2019-05-12T14:56:14.045Z,12.28
2019-05-12T14:58:50.296Z,9.85
2019-05-12T15:01:19.628Z,10.98
2019-05-12T15:03:53.512Z,11.88
2019-05-12T15:06:29.447Z,13.20
2019-05-12T15:08:58.825Z,10.70
2019-05-12T15:11:30.658Z,9.80
2019-05-12T15:14:03.157Z,10.78
2019-05-12T15:16:40.302Z,14.95
2019-05-12T15:19:09.879Z,9.80
2019-05-12T15:21:43.744Z,13.22
2019-05-12T15:24:18.996Z,13.05
2019-05-12T15:26:50.453Z,12.82
2019-05-12T15:29:23.757Z,14.25
2019-05-12T15:31:56.815Z,14.15
2019-05-12T15:37:03.983Z,11.40
2019-05-12T15:39:35.082Z,12.05
2019-05-12T15:42:07.223Z,11.85
2019-05-12T15:44:39.030Z,10.98
2019-05-12T15:47:11.191Z,9.60
2019-05-12T15:49:44.260Z,11.30
2019-05-12T15:52:16.470Z,11.53
2019-05-12T15:54:51.280Z,12.28
2019-05-12T15:57:24.438Z,14.35
2019-05-12T15:59:55.630Z,17.37
2019-05-12T16:02:27.613Z,15.08
2019-05-12T16:04:59.477Z,15.00
2019-05-12T16:07:35.678Z,26.15
2019-05-12T16:10:05.640Z,23.27
2019-05-12T16:12:37.866Z,15.05
2019-05-12T16:15:11.453Z,15.60
2019-05-12T16:17:44.266Z,17.12
2019-05-12T16:20:17.275Z,15.05
2019-05-12T16:22:49.260Z,17.37
2019-05-12T16:25:29.148Z,12.80
2019-05-12T16:27:54.886Z,16.05
2019-05-12T16:30:27.229Z,19.73
2019-05-12T16:32:59.468Z,16.65
2019-05-12T16:35:31.988Z,16.00
2019-05-12T16:38:13.865Z,14.98
2019-05-12T16:40:39.482Z,19.90
2019-05-12T16:43:14.432Z,17.65
2019-05-12T16:45:45.999Z,16.30
2019-05-12T16:48:29.219Z,14.07
2019-05-12T16:50:52.744Z,18.32
2019-05-12T16:53:27.934Z,14.30
2019-05-12T16:55:59.836Z,15.78
2019-05-12T16:58:35.214Z,14.68
2019-05-12T17:01:05.308Z,13.48
2019-05-12T17:03:37.435Z,16.27
2019-05-12T17:06:09.475Z,14.78
2019-05-12T17:08:43.690Z,20.00
2019-05-12T17:11:27.310Z,18.80
2019-05-12T17:13:56.858Z,17.73
2019-05-12T17:16:22.395Z,13.32
2019-05-12T17:18:54.355Z,20.27
2019-05-12T17:21:26.467Z,14.13
2019-05-12T17:23:58.490Z,14.18
2019-05-12T17:26:30.304Z,15.88
2019-05-12T17:29:02.318Z,15.85
2019-05-12T17:31:34.601Z,16.57
2019-05-12T17:34:09.235Z,15.18
2019-05-12T17:36:40.531Z,18.87
2019-05-12T17:39:13.853Z,17.42
2019-05-12T17:41:45.899Z,24.53
2019-05-12T17:44:18.059Z,17.25
2019-05-12T17:46:49.855Z,16.53
2019-05-12T17:49:25.450Z,16.50
2019-05-12T17:51:57.283Z,14.87
2019-05-12T17:54:29.378Z,19.67
2019-05-12T17:57:01.215Z,17.57
2019-05-12T17:59:33.412Z,21.33
2019-05-12T18:02:11.409Z,26.50
2019-05-12T18:04:39.689Z,13.47
2019-05-12T18:07:18.505Z,12.20
2019-05-12T18:09:50.539Z,14.80
2019-05-12T18:12:20.232Z,13.38
2019-05-12T18:14:53.318Z,20.80
2019-05-12T18:17:25.181Z,18.83
2019-05-12T18:20:00.837Z,20.73
2019-05-12T18:22:31.078Z,27.40
2019-05-12T18:25:04.297Z,14.47
2019-05-12T18:27:44.414Z,16.53
2019-05-12T18:30:11.015Z,17.20
2019-05-12T18:32:43.537Z,20.77
2019-05-12T18:35:15.951Z,19.50
2019-05-12T18:37:48.320Z,19.43
2019-05-12T18:40:20.588Z,13.53
2019-05-12T18:42:53.371Z,18.87
2019-05-12T18:45:26.074Z,17.20
2019-05-12T18:48:01.056Z,16.37
2019-05-12T18:50:34.278Z,19.17
2019-05-12T18:53:05.778Z,17.97
2019-05-12T18:55:40.307Z,17.37
2019-05-12T18:58:11.609Z,18.00
2019-05-12T19:00:43.798Z,20.57
2019-05-12T19:03:15.818Z,16.30
2019-05-12T19:05:47.918Z,21.70
2019-05-12T19:08:20.406Z,16.53
2019-05-12T19:10:53.086Z,15.57
2019-05-12T19:13:25.335Z,14.63
2019-05-12T19:16:02.501Z,14.43
2019-05-12T19:18:37.027Z,16.10
2019-05-12T19:21:10.361Z,12.37
2019-05-12T19:23:40.764Z,15.37
2019-05-12T19:26:13.606Z,16.13
2019-05-12T19:28:53.183Z,15.27
2019-05-12T19:31:19.492Z,6.87
2019-05-12T19:34:03.212Z,10.77
2019-05-12T19:36:24.917Z,10.37
2019-05-12T19:38:56.834Z,11.57
2019-05-12T19:41:30.878Z,10.23
2019-05-12T19:44:04.041Z,7.10
2019-05-12T19:46:39.866Z,8.47
2019-05-12T19:49:09.641Z,11.83
2019-05-12T19:51:43.796Z,15.87
2019-05-12T19:54:19.421Z,8.23
2019-05-12T19:56:49.733Z,5.30
2019-05-12T19:59:23.658Z,9.43
2019-05-12T20:01:55.520Z,6.87
2019-05-12T20:04:33.293Z,7.27
2019-05-12T20:07:03.563Z,5.87
2019-05-12T20:09:35.093Z,8.67
2019-05-12T20:12:15.151Z,7.63
2019-05-12T20:14:40.651Z,10.23
2019-05-12T20:17:12.579Z,12.27
2019-05-12T20:19:44.551Z,6.47
2019-05-12T20:22:16.669Z,7.60
2019-05-12T20:24:48.497Z,9.10
2019-05-12T20:27:21.924Z,6.70
2019-05-12T20:29:54.112Z,7.93
2019-05-12T20:32:26.193Z,6.77
2019-05-12T20:34:58.128Z,4.87
2019-05-12T20:37:30.001Z,6.73
2019-05-12T20:40:05.233Z,5.30
2019-05-12T20:42:43.997Z,5.57
2019-05-12T20:45:13.573Z,6.17
2019-05-12T20:47:47.690Z,5.47
2019-05-12T20:50:25.959Z,5.63
2019-05-12T20:52:58.736Z,3.23
2019-05-12T20:55:29.978Z,5.83
2019-05-12T20:58:01.435Z,8.27
2019-05-12T21:00:33.711Z,6.70
2019-05-12T21:03:05.890Z,4.13
2019-05-12T21:05:37.678Z,6.90
2019-05-12T21:08:12.024Z,8.30
2019-05-12T21:10:43.905Z,6.00
2019-05-12T21:13:20.484Z,6.73
2019-05-12T21:15:50.467Z,6.00
2019-05-12T21:18:23.709Z,2.40
2019-05-12T21:20:55.995Z,4.10
2019-05-12T21:23:28.127Z,5.30
2019-05-12T21:26:00.204Z,3.47
2019-05-12T21:28:37.035Z,6.67
2019-05-12T21:31:05.951Z,4.83
2019-05-12T21:33:41.650Z,4.87
2019-05-12T21:36:17.362Z,3.00
2019-05-12T21:38:45.138Z,2.87
2019-05-12T21:41:17.188Z,4.03
2019-05-12T21:43:49.254Z,3.77
2019-05-12T21:46:21.090Z,2.87
2019-05-12T21:48:53.172Z,5.23
2019-05-12T21:51:26.385Z,4.80
2019-05-12T21:53:58.444Z,3.43
2019-05-12T21:56:34.912Z,4.23
2019-05-12T21:59:03.895Z,3.50
2019-05-12T22:01:43.502Z,4.00
2019-05-12T22:04:10.618Z,4.77
2019-05-12T22:06:43.784Z,5.27
2019-05-12T22:09:17.561Z,4.00
2019-05-12T22:11:50.980Z,3.40
2019-05-12T22:14:24.077Z,2.87
2019-05-12T22:16:57.588Z,2.53
2019-05-12T22:19:31.208Z,3.60
2019-05-12T22:22:04.324Z,3.60
2019-05-12T22:24:38.730Z,4.23
2019-05-12T22:27:13.959Z,4.00
2019-05-12T22:29:43.890Z,2.70
2019-05-12T22:32:18.987Z,2.30
2019-05-12T22:34:49.544Z,3.53
2019-05-12T22:37:23.849Z,2.87
2019-05-12T22:39:56.222Z,3.43
2019-05-12T22:42:28.257Z,2.60
2019-05-12T22:45:01.452Z,5.93
2019-05-12T22:47:33.590Z,5.10
2019-05-12T22:50:05.570Z,3.20
2019-05-12T22:52:38.992Z,3.33
2019-05-12T22:55:13.992Z,3.20
2019-05-12T22:57:45.663Z,3.20
2019-05-12T23:00:21.683Z,1.90
2019-05-12T23:02:53.781Z,2.73
2019-05-12T23:05:25.612Z,2.47
2019-05-12T23:08:00.202Z,2.50
2019-05-12T23:10:30.957Z,2.47
2019-05-12T23:13:05.046Z,3.20
2019-05-12T23:15:38.846Z,2.40
2019-05-12T23:18:10.285Z,2.10
2019-05-12T23:20:43.911Z,1.97
2019-05-12T23:23:18.869Z,3.40
2019-05-12T23:25:54.318Z,2.53
2019-05-12T23:28:23.537Z,4.57
2019-05-12T23:30:55.769Z,2.47
2019-05-12T23:33:31.775Z,1.97
2019-05-12T23:36:01.101Z,2.93
2019-05-12T23:38:33.878Z,3.03
2019-05-12T23:41:05.958Z,2.00
2019-05-12T23:43:37.864Z,2.03
2019-05-12T23:46:09.999Z,3.80
2019-05-12T23:48:43.882Z,1.70
2019-05-12T23:51:15.287Z,1.63
2019-05-12T23:53:47.013Z,2.93
2019-05-12T23:56:18.883Z,2.00
2019-05-12T23:58:50.612Z,2.73
